Time;durP1;ratioP1;P1;durP2;ratioP2;P2;SDS_P1;SDS_P2;PMS_P1;PMS_P2;Temp;Humidity;BMP_temperature;BMP_pressure;BME280_temperature;BME280_humidity;BME280_pressure;Samples;Min_cycle;Max_cycle;Signal;HPM_P1;HPM_P2
2023/07/11 00:00:44;;;;;;;7.40;4.90;;;21.50;99.90;;;;;;5036451;28;20209;-29
2023/07/11 00:03:11;;;;;;;5.15;4.22;;;21.40;99.90;;;;;;5053697;28;20186;-29
2023/07/11 00:05:37;;;;;;;6.65;4.63;;;21.30;99.90;;;;;;5051149;28;20186;-30
2023/07/11 00:08:03;;;;;;;5.55;5.00;;;21.20;99.90;;;;;;5033938;28;20214;-29
2023/07/11 00:10:30;;;;;;;6.35;5.00;;;21.00;99.90;;;;;;5055442;28;20253;-30
2023/07/11 00:12:56;;;;;;;5.05;4.43;;;21.00;99.90;;;;;;5055818;28;20185;-29
2023/07/11 00:15:22;;;;;;;5.43;4.93;;;21.00;99.90;;;;;;5056903;28;20189;-29
2023/07/11 00:17:48;;;;;;;7.07;4.53;;;21.00;99.90;;;;;;5035285;28;20231;-29
2023/07/11 00:20:15;;;;;;;7.15;4.90;;;21.00;99.90;;;;;;5032833;28;20177;-29
2023/07/11 00:22:42;;;;;;;6.40;5.00;;;20.90;99.90;;;;;;5055415;28;20678;-28
2023/07/11 00:25:09;;;;;;;6.35;4.85;;;20.90;99.90;;;;;;5055694;28;20212;-29
2023/07/11 00:27:36;;;;;;;6.95;4.35;;;20.90;99.90;;;;;;5042800;28;20220;-29
2023/07/11 00:30:03;;;;;;;6.30;5.00;;;20.90;99.90;;;;;;5043320;28;20174;-29
2023/07/11 00:32:29;;;;;;;6.20;4.85;;;20.90;99.90;;;;;;5060398;28;20208;-28
2023/07/11 00:34:57;;;;;;;6.78;5.28;;;20.90;99.90;;;;;;5035520;28;20183;-28
2023/07/11 00:37:24;;;;;;;5.85;5.28;;;20.90;99.90;;;;;;5039532;28;20238;-29
2023/07/11 00:39:50;;;;;;;9.10;5.03;;;20.90;99.90;;;;;;5043380;28;20269;-28
2023/07/11 00:42:16;;;;;;;8.23;5.03;;;20.80;99.90;;;;;;5039834;28;20185;-28
2023/07/11 00:44:55;;;;;;;6.82;5.40;;;20.80;99.90;;;;;;5077133;28;20276;-28
2023/07/11 00:47:26;;;;;;;6.97;4.55;;;20.80;99.90;;;;;;5059066;28;20193;-29
2023/07/11 00:50:05;;;;;;;5.97;5.10;;;20.80;99.90;;;;;;5042267;28;20189;-29
2023/07/11 00:52:34;;;;;;;5.63;4.97;;;20.80;99.90;;;;;;5058741;28;20275;-29
2023/07/11 00:55:05;;;;;;;5.32;4.55;;;20.70;99.90;;;;;;5039723;28;20227;-29
2023/07/11 00:57:34;;;;;;;5.30;4.65;;;20.70;99.90;;;;;;5043203;28;20198;-29
2023/07/11 01:00:01;;;;;;;8.07;5.15;;;20.70;99.90;;;;;;5039337;28;20298;-29
2023/07/11 01:02:28;;;;;;;6.47;5.00;;;20.80;99.90;;;;;;5058078;28;20209;-29
2023/07/11 01:04:55;;;;;;;5.22;4.60;;;20.70;99.90;;;;;;5036751;28;20209;-29
2023/07/11 01:07:25;;;;;;;8.23;5.07;;;20.60;99.90;;;;;;5057452;28;20181;-28
2023/07/11 01:09:51;;;;;;;5.68;4.95;;;20.60;99.90;;;;;;5041226;28;20193;-29
2023/07/11 01:12:18;;;;;;;6.45;4.90;;;20.60;99.90;;;;;;5040635;28;20202;-29
2023/07/11 01:14:47;;;;;;;6.50;5.32;;;20.50;99.90;;;;;;5041953;28;20556;-30
2023/07/11 01:17:34;;;;;;;5.93;5.30;;;20.50;99.90;;;;;;5041035;28;20178;-29
2023/07/11 01:20:03;;;;;;;7.90;6.03;;;20.40;99.90;;;;;;5046106;28;20356;-29
2023/07/11 01:22:30;;;;;;;6.47;5.85;;;20.40;99.90;;;;;;5059844;28;20185;-28
2023/07/11 01:25:05;;;;;;;12.23;6.00;;;20.40;99.90;;;;;;5042561;28;20193;-29
2023/07/11 01:27:31;;;;;;;6.63;5.95;;;20.30;99.90;;;;;;5060076;28;20212;-28
2023/07/11 01:29:57;;;;;;;6.00;5.40;;;20.30;99.90;;;;;;5042743;28;20181;-28
2023/07/11 01:32:23;;;;;;;7.75;5.13;;;20.20;99.90;;;;;;5040549;28;20248;-29
2023/07/11 01:34:48;;;;;;;5.68;5.05;;;20.00;99.90;;;;;;5056485;28;20213;-28
2023/07/11 01:37:14;;;;;;;5.50;5.00;;;19.90;99.90;;;;;;5040291;28;20189;-28
2023/07/11 01:39:40;;;;;;;5.85;4.95;;;19.70;99.90;;;;;;5043188;28;20174;-29
2023/07/11 01:42:09;;;;;;;9.13;5.78;;;19.60;99.90;;;;;;5042612;28;20184;-27
2023/07/11 01:44:36;;;;;;;5.68;4.95;;;19.50;99.90;;;;;;5057445;28;20177;-28
2023/07/11 01:47:02;;;;;;;6.15;5.32;;;19.60;99.90;;;;;;5075347;28;20272;-29
2023/07/11 01:49:28;;;;;;;6.10;5.03;;;19.70;99.90;;;;;;5040486;28;20336;-28
2023/07/11 01:52:07;;;;;;;7.18;5.28;;;19.70;99.90;;;;;;5041910;28;20209;-28
2023/07/11 01:54:33;;;;;;;7.32;5.38;;;19.80;99.90;;;;;;5042461;28;20268;-28
2023/07/11 01:56:59;;;;;;;6.38;5.05;;;19.80;99.90;;;;;;5041390;28;20178;-28
2023/07/11 01:59:26;;;;;;;6.05;5.45;;;19.70;99.90;;;;;;5042204;28;20193;-28
2023/07/11 02:01:52;;;;;;;5.90;5.30;;;19.60;99.90;;;;;;5040367;28;20183;-28
2023/07/11 02:04:21;;;;;;;6.18;5.60;;;19.60;99.90;;;;;;5040450;28;20245;-29
2023/07/11 02:06:49;;;;;;;7.68;5.25;;;19.60;99.90;;;;;;5072442;28;20181;-28
2023/07/11 02:09:16;;;;;;;8.43;5.75;;;19.70;99.90;;;;;;5042170;28;20240;-28
2023/07/11 02:11:42;;;;;;;5.63;5.00;;;19.70;99.90;;;;;;5040922;28;20287;-28
2023/07/11 02:14:08;;;;;;;6.00;5.38;;;19.70;99.90;;;;;;5039300;28;20257;-29
2023/07/11 02:16:34;;;;;;;7.35;4.97;;;19.70;99.90;;;;;;5040934;28;20191;-28
2023/07/11 02:18:59;;;;;;;7.88;5.15;;;19.60;99.90;;;;;;5039609;28;20197;-29
2023/07/11 02:21:25;;;;;;;7.03;5.20;;;19.60;99.90;;;;;;5056399;28;20193;-29
2023/07/11 02:23:51;;;;;;;5.95;5.30;;;19.60;99.90;;;;;;5041174;28;20181;-29
2023/07/11 02:26:17;;;;;;;6.53;5.35;;;19.60;99.90;;;;;;5055380;28;20297;-29
2023/07/11 02:28:43;;;;;;;6.07;5.28;;;19.70;99.90;;;;;;5040503;28;20197;-28
2023/07/11 02:31:08;;;;;;;7.32;4.95;;;19.70;99.90;;;;;;5057912;28;20235;-26
2023/07/11 02:33:34;;;;;;;6.15;4.90;;;19.70;99.90;;;;;;5040530;28;20279;-28
2023/07/11 02:36:00;;;;;;;6.10;5.22;;;19.70;99.90;;;;;;5055600;28;20264;-29
2023/07/11 02:38:26;;;;;;;6.10;5.38;;;19.70;99.90;;;;;;5040082;28;20235;-28
2023/07/11 02:40:52;;;;;;;5.53;4.82;;;19.70;99.90;;;;;;5040911;28;20276;-27
2023/07/11 02:43:18;;;;;;;5.53;4.90;;;19.70;99.90;;;;;;5040069;28;20227;-29
2023/07/11 02:45:44;;;;;;;6.07;5.25;;;19.70;99.90;;;;;;5057872;28;20228;-28
2023/07/11 02:48:10;;;;;;;5.30;4.80;;;19.70;99.90;;;;;;5039158;28;20206;-29
2023/07/11 02:50:36;;;;;;;7.25;5.43;;;19.60;99.90;;;;;;5039403;28;20182;-29
2023/07/11 02:53:02;;;;;;;5.35;4.85;;;19.60;99.90;;;;;;5040281;28;20178;-29
2023/07/11 02:55:27;;;;;;;6.30;4.97;;;19.60;99.90;;;;;;5041405;28;20224;-27
2023/07/11 02:57:53;;;;;;;6.00;5.40;;;19.60;99.90;;;;;;5039588;28;20209;-29
2023/07/11 03:00:19;;;;;;;6.55;5.35;;;19.60;99.90;;;;;;5040986;28;20178;-28
2023/07/11 03:02:45;;;;;;;6.03;5.13;;;19.60;99.90;;;;;;5040558;28;20239;-29
2023/07/11 03:05:11;;;;;;;5.63;5.07;;;19.60;99.90;;;;;;5042795;28;20193;-29
2023/07/11 03:07:36;;;;;;;9.32;5.20;;;19.60;99.90;;;;;;5041153;28;20280;-29
2023/07/11 03:10:03;;;;;;;5.72;5.05;;;19.60;99.90;;;;;;5056632;28;20297;-28
2023/07/11 03:12:28;;;;;;;5.97;5.07;;;19.60;99.90;;;;;;5040440;28;20206;-28
2023/07/11 03:14:54;;;;;;;5.95;5.10;;;19.60;99.90;;;;;;5040166;28;20184;-29
2023/07/11 03:17:20;;;;;;;6.63;5.65;;;19.60;99.90;;;;;;5056367;28;20192;-28
2023/07/11 03:19:46;;;;;;;5.82;5.22;;;19.60;99.90;;;;;;5040499;28;20177;-28
2023/07/11 03:22:12;;;;;;;5.63;5.03;;;19.60;99.90;;;;;;5057853;28;20190;-28
2023/07/11 03:24:38;;;;;;;6.93;5.07;;;19.60;99.90;;;;;;5043453;28;20216;-28
2023/07/11 03:27:04;;;;;;;6.88;5.47;;;19.60;99.90;;;;;;5061612;28;20286;-28
2023/07/11 03:29:29;;;;;;;5.63;5.03;;;19.60;99.90;;;;;;5042863;28;20205;-29
2023/07/11 03:31:56;;;;;;;6.25;5.65;;;19.60;99.90;;;;;;5060594;28;20228;-28
2023/07/11 03:34:21;;;;;;;8.75;5.32;;;19.60;99.90;;;;;;5038689;28;20268;-29
2023/07/11 03:36:47;;;;;;;6.85;5.22;;;19.70;99.90;;;;;;5061632;28;20256;-28
2023/07/11 03:39:13;;;;;;;6.00;5.43;;;19.60;99.90;;;;;;5043050;28;20243;-28
2023/07/11 03:41:39;;;;;;;5.65;5.15;;;19.60;99.90;;;;;;5044155;28;20190;-28
2023/07/11 03:44:05;;;;;;;5.70;5.20;;;19.60;99.90;;;;;;5059496;28;20186;-28
2023/07/11 03:46:31;;;;;;;7.40;5.72;;;19.60;99.90;;;;;;5043708;28;20186;-28
2023/07/11 03:49:00;;;;;;;6.25;5.65;;;19.60;99.90;;;;;;5058253;28;20206;-28
2023/07/11 03:51:26;;;;;;;10.80;6.03;;;19.60;99.90;;;;;;5040533;28;20201;-29
2023/07/11 03:53:52;;;;;;;7.03;6.22;;;19.70;99.90;;;;;;5057376;28;20182;-29
2023/07/11 03:56:18;;;;;;;6.60;5.65;;;19.70;99.90;;;;;;5037169;28;20235;-29
2023/07/11 03:58:44;;;;;;;7.05;6.15;;;19.70;99.90;;;;;;5044334;28;20255;-29
2023/07/11 04:01:10;;;;;;;7.28;5.85;;;19.70;99.90;;;;;;5044343;28;20190;-29
2023/07/11 04:03:35;;;;;;;6.47;5.65;;;19.70;99.90;;;;;;5038479;28;20268;-29
2023/07/11 04:06:01;;;;;;;7.72;5.82;;;19.70;99.90;;;;;;5036485;28;20185;-29
2023/07/11 04:08:27;;;;;;;6.28;5.60;;;19.70;99.90;;;;;;5071045;28;20236;-29
2023/07/11 04:10:53;;;;;;;8.27;6.28;;;19.80;99.90;;;;;;5041072;28;20292;-28
2023/07/11 04:13:19;;;;;;;7.70;5.88;;;19.80;99.90;;;;;;5057436;28;20279;-28
2023/07/11 04:15:45;;;;;;;5.82;5.30;;;19.80;99.90;;;;;;5057609;28;20182;-28
2023/07/11 04:18:11;;;;;;;6.57;5.93;;;19.80;99.90;;;;;;5035357;28;20309;-29
2023/07/11 04:20:45;;;;;;;7.05;6.35;;;19.90;99.90;;;;;;5057521;28;20193;-28
2023/07/11 04:23:14;;;;;;;6.78;5.63;;;19.90;99.90;;;;;;5036869;28;20189;-31
2023/07/11 04:25:43;;;;;;;8.15;5.95;;;19.90;99.90;;;;;;5065809;28;20188;-29
2023/07/11 04:28:09;;;;;;;6.95;6.25;;;19.90;99.90;;;;;;5038160;28;20276;-29
2023/07/11 04:30:36;;;;;;;6.63;5.72;;;19.90;99.90;;;;;;5057771;28;20304;-29
2023/07/11 04:33:02;;;;;;;6.68;5.82;;;20.00;99.90;;;;;;5058698;28;20174;-29
2023/07/11 04:35:29;;;;;;;6.30;5.70;;;20.00;99.90;;;;;;5042239;28;20205;-30
2023/07/11 04:37:55;;;;;;;6.47;5.72;;;20.00;99.90;;;;;;5041671;28;20232;-29
2023/07/11 04:40:21;;;;;;;6.68;5.90;;;20.00;99.90;;;;;;5043068;28;20173;-29
2023/07/11 04:42:46;;;;;;;7.95;6.25;;;20.00;99.90;;;;;;5043941;28;20186;-29
2023/07/11 04:45:12;;;;;;;6.90;6.30;;;20.00;99.90;;;;;;5040921;28;20308;-30
2023/07/11 04:47:38;;;;;;;6.88;6.28;;;20.00;99.90;;;;;;5060475;28;20208;-29
2023/07/11 04:50:05;;;;;;;6.53;5.90;;;20.00;99.90;;;;;;5041818;28;20189;-29
2023/07/11 04:52:31;;;;;;;7.80;6.28;;;20.10;99.90;;;;;;5042494;28;20208;-29
2023/07/11 04:54:57;;;;;;;6.93;5.88;;;20.20;99.90;;;;;;5060302;28;20238;-29
2023/07/11 04:57:24;;;;;;;7.07;5.65;;;20.20;99.90;;;;;;5041585;28;20181;-29
2023/07/11 04:59:50;;;;;;;7.00;6.25;;;20.20;99.90;;;;;;5041583;28;20185;-29
2023/07/11 05:02:16;;;;;;;6.57;5.70;;;20.30;99.90;;;;;;5054847;28;20185;-29
2023/07/11 05:04:42;;;;;;;7.13;5.50;;;20.20;99.90;;;;;;5058273;28;20189;-29
2023/07/11 05:07:09;;;;;;;7.13;6.05;;;20.20;99.90;;;;;;5042641;28;20185;-29
2023/07/11 05:09:37;;;;;;;9.40;6.20;;;20.30;99.90;;;;;;5058364;28;20201;-29
2023/07/11 05:12:04;;;;;;;9.95;6.07;;;20.20;99.90;;;;;;5038945;28;20314;-29
2023/07/11 05:14:30;;;;;;;7.22;6.13;;;20.30;99.90;;;;;;5055712;28;20673;-29
2023/07/11 05:16:55;;;;;;;6.82;5.43;;;20.30;99.90;;;;;;5042886;28;20182;-30
2023/07/11 05:19:21;;;;;;;6.45;5.45;;;20.30;99.90;;;;;;5040101;28;20202;-28
2023/07/11 05:21:47;;;;;;;7.10;6.40;;;20.40;99.90;;;;;;5056009;28;20181;-29
2023/07/11 05:24:13;;;;;;;7.53;6.03;;;20.50;99.90;;;;;;5041851;28;20672;-30
2023/07/11 05:26:39;;;;;;;8.82;6.07;;;20.50;99.90;;;;;;5041694;28;20276;-29
2023/07/11 05:29:05;;;;;;;6.45;5.85;;;20.60;99.90;;;;;;5041289;28;20212;-29
2023/07/11 05:31:31;;;;;;;6.78;6.10;;;20.60;99.90;;;;;;5039657;28;20212;-30
2023/07/11 05:33:57;;;;;;;6.53;5.78;;;20.60;99.90;;;;;;5040333;28;20173;-29
2023/07/11 05:36:33;;;;;;;8.70;6.90;;;20.70;99.90;;;;;;5038410;28;20192;-29
2023/07/11 05:39:00;;;;;;;7.82;6.97;;;20.70;99.90;;;;;;5056420;28;20206;-29
2023/07/11 05:41:26;;;;;;;6.30;5.70;;;20.80;99.90;;;;;;5059103;28;20280;-29
2023/07/11 05:43:54;;;;;;;7.30;6.43;;;20.90;99.90;;;;;;5045009;28;20235;-29
2023/07/11 05:46:19;;;;;;;7.38;6.25;;;21.00;99.90;;;;;;5046064;28;20211;-29
2023/07/11 05:48:45;;;;;;;6.80;5.90;;;21.20;99.90;;;;;;5074026;28;20300;-30
2023/07/11 05:51:14;;;;;;;7.18;6.45;;;21.30;99.90;;;;;;5054745;28;20217;-31
2023/07/11 05:53:40;;;;;;;9.98;6.97;;;21.40;99.90;;;;;;5041184;28;20181;-29
2023/07/11 05:56:07;;;;;;;7.60;6.85;;;21.50;99.90;;;;;;5042123;28;20273;-30
2023/07/11 05:58:33;;;;;;;8.18;6.28;;;21.60;99.90;;;;;;5058849;28;20201;-30
2023/07/11 06:00:59;;;;;;;9.50;7.07;;;21.70;99.90;;;;;;5056246;28;20276;-30
2023/07/11 06:03:27;;;;;;;7.22;6.25;;;21.90;99.90;;;;;;5042095;28;20186;-29
2023/07/11 06:05:58;;;;;;;6.72;6.03;;;22.00;99.90;;;;;;5039340;28;20192;-29
2023/07/11 06:08:24;;;;;;;7.22;6.10;;;22.10;99.90;;;;;;5075034;28;20201;-29
2023/07/11 06:10:49;;;;;;;7.97;6.20;;;22.20;99.90;;;;;;5039439;28;20208;-29
2023/07/11 06:13:15;;;;;;;8.48;6.68;;;22.30;99.90;;;;;;5040815;28;20182;-29
2023/07/11 06:15:41;;;;;;;10.93;6.85;;;22.40;99.90;;;;;;5038268;28;20181;-29
2023/07/11 06:18:07;;;;;;;7.68;6.68;;;22.50;99.90;;;;;;5041974;28;20206;-29
2023/07/11 06:20:33;;;;;;;8.55;6.97;;;22.50;99.90;;;;;;5040254;28;20182;-30
2023/07/11 06:22:59;;;;;;;8.05;7.25;;;22.70;99.90;;;;;;5041774;28;20264;-29
2023/07/11 06:25:25;;;;;;;7.55;6.72;;;22.80;99.90;;;;;;5029725;28;20223;-30
2023/07/11 06:27:51;;;;;;;8.02;6.72;;;23.00;99.90;;;;;;5051823;28;20204;-29
2023/07/11 06:30:17;;;;;;;7.47;6.80;;;23.10;99.90;;;;;;5039780;28;20169;-29
2023/07/11 06:32:42;;;;;;;8.43;6.97;;;23.20;99.90;;;;;;5056456;28;20248;-30
2023/07/11 06:35:12;;;;;;;9.50;7.10;;;23.30;99.90;;;;;;5039794;28;20178;-30
2023/07/11 06:37:38;;;;;;;7.22;6.53;;;23.50;99.90;;;;;;5016834;28;20213;-29
2023/07/11 06:40:08;;;;;;;7.30;6.55;;;23.60;99.90;;;;;;5055586;28;20186;-30
2023/07/11 06:42:34;;;;;;;8.23;6.97;;;23.70;99.90;;;;;;5042456;28;20185;-30
2023/07/11 06:45:00;;;;;;;9.18;6.68;;;23.90;99.90;;;;;;5036433;28;20181;-29
2023/07/11 06:47:26;;;;;;;7.53;6.82;;;24.10;99.90;;;;;;5036915;28;20254;-29
2023/07/11 06:49:51;;;;;;;7.03;6.32;;;24.30;99.90;;;;;;5056843;28;20177;-30
2023/07/11 06:52:17;;;;;;;7.22;6.53;;;24.50;99.90;;;;;;5039155;28;20241;-29
2023/07/11 06:54:43;;;;;;;9.20;6.85;;;24.70;99.90;;;;;;5036311;28;20182;-31
2023/07/11 06:57:09;;;;;;;7.70;6.90;;;24.80;99.90;;;;;;5054121;28;20178;-30
2023/07/11 06:59:35;;;;;;;6.78;6.18;;;25.00;99.90;;;;;;5052926;28;20224;-30
2023/07/11 07:02:00;;;;;;;9.27;6.38;;;25.10;99.90;;;;;;5046397;28;20189;-29
2023/07/11 07:04:26;;;;;;;7.15;6.53;;;25.20;99.90;;;;;;5038457;28;20174;-30
2023/07/11 07:06:52;;;;;;;8.15;6.78;;;25.40;99.90;;;;;;5047188;28;20199;-29
2023/07/11 07:09:18;;;;;;;7.97;6.93;;;25.50;99.90;;;;;;5036758;28;20218;-28
2023/07/11 07:11:44;;;;;;;7.75;6.55;;;25.70;99.90;;;;;;5039938;28;20205;-30
2023/07/11 07:14:10;;;;;;;7.40;6.70;;;25.70;99.90;;;;;;5056314;28;20177;-30
2023/07/11 07:16:38;;;;;;;8.68;6.30;;;25.80;99.90;;;;;;5022898;28;20204;-30
2023/07/11 07:19:10;;;;;;;6.70;6.10;;;26.00;99.90;;;;;;5038774;28;20846;-30
2023/07/11 07:21:36;;;;;;;8.00;6.63;;;26.10;99.90;;;;;;5063310;28;20205;-30
2023/07/11 07:24:02;;;;;;;7.10;6.40;;;26.30;99.90;;;;;;5046024;28;20245;-30
2023/07/11 07:26:28;;;;;;;6.38;5.78;;;26.40;99.90;;;;;;5054743;28;20178;-30
2023/07/11 07:28:54;;;;;;;7.00;5.90;;;26.50;99.90;;;;;;5072561;28;20221;-30
2023/07/11 07:31:22;;;;;;;6.20;5.70;;;26.70;99.90;;;;;;5052662;28;20252;-32
2023/07/11 07:33:48;;;;;;;8.18;5.75;;;26.70;99.90;;;;;;5036627;28;20189;-30
2023/07/11 07:36:14;;;;;;;5.30;4.80;;;26.80;99.90;;;;;;5063405;28;20177;-29
2023/07/11 07:38:40;;;;;;;5.82;5.30;;;27.00;99.90;;;;;;5064092;28;20205;-28
2023/07/11 07:41:08;;;;;;;6.07;5.43;;;27.20;99.90;;;;;;5036218;28;20182;-30
2023/07/11 07:43:36;;;;;;;6.72;5.45;;;27.40;99.90;;;;;;5050912;28;20181;-30
2023/07/11 07:46:03;;;;;;;6.47;5.60;;;27.50;99.90;;;;;;5046477;28;20186;-30
2023/07/11 07:48:30;;;;;;;6.25;5.65;;;27.70;99.90;;;;;;5030852;28;20203;-30
2023/07/11 07:51:04;;;;;;;6.18;5.57;;;27.80;99.90;;;;;;5060931;28;20209;-30
2023/07/11 07:53:30;;;;;;;6.45;5.63;;;28.00;99.90;;;;;;5044972;28;20185;-30
2023/07/11 07:56:11;;;;;;;6.38;5.45;;;28.20;99.90;;;;;;5046255;28;20186;-30
2023/07/11 07:58:38;;;;;;;6.90;6.20;;;28.30;99.90;;;;;;5066645;28;20200;-31
2023/07/11 08:01:05;;;;;;;6.55;5.70;;;28.40;99.90;;;;;;5055417;28;20212;-30
2023/07/11 08:03:32;;;;;;;8.70;5.60;;;28.40;99.90;;;;;;5044020;28;20232;-30
2023/07/11 08:05:58;;;;;;;7.22;5.93;;;28.40;99.90;;;;;;5048534;28;20203;-30
2023/07/11 08:08:24;;;;;;;6.30;5.70;;;28.40;99.90;;;;;;5070592;28;20201;-30
2023/07/11 08:10:50;;;;;;;6.22;5.50;;;28.50;99.90;;;;;;5025971;28;20198;-30
2023/07/11 08:13:16;;;;;;;7.55;6.45;;;28.40;99.90;;;;;;5059478;28;20201;-31
2023/07/11 08:15:42;;;;;;;8.45;6.80;;;28.60;99.90;;;;;;5048102;28;20178;-30
2023/07/11 08:18:09;;;;;;;6.57;5.95;;;28.60;99.90;;;;;;5039784;28;20197;-30
2023/07/11 08:20:35;;;;;;;7.03;6.32;;;28.70;99.90;;;;;;5048497;28;20196;-29
2023/07/11 08:23:01;;;;;;;6.88;6.18;;;28.90;99.90;;;;;;5063265;28;20222;-30
2023/07/11 08:25:27;;;;;;;8.15;6.10;;;28.80;99.90;;;;;;5033498;28;20186;-30
2023/07/11 08:27:54;;;;;;;7.53;6.53;;;28.80;99.90;;;;;;5057840;28;20264;-30
2023/07/11 08:30:20;;;;;;;7.00;6.40;;;29.10;99.90;;;;;;5029574;28;20182;-31
2023/07/11 08:32:46;;;;;;;9.05;6.80;;;29.20;99.90;;;;;;5051994;28;20201;-30
2023/07/11 08:35:12;;;;;;;7.43;6.72;;;29.30;99.90;;;;;;5038787;28;20189;-31
2023/07/11 08:37:37;;;;;;;8.85;6.88;;;29.40;99.90;;;;;;5053069;28;20197;-31
2023/07/11 08:40:04;;;;;;;7.82;6.72;;;29.50;99.90;;;;;;5041948;28;20185;-31
2023/07/11 08:42:41;;;;;;;8.98;6.65;;;29.70;99.90;;;;;;5042893;28;20182;-31
2023/07/11 08:45:46;;;;;;;8.15;7.28;;;30.00;99.90;;;;;;5041968;28;20189;-30
2023/07/11 08:48:30;;;;;;;7.13;6.43;;;30.10;99.90;;;;;;5055784;28;20203;-30
2023/07/11 08:51:28;;;;;;;7.53;6.70;;;30.30;99.90;;;;;;5038749;28;20209;-31
2023/07/11 08:54:21;;;;;;;7.55;6.40;;;30.50;99.90;;;;;;5059821;28;20211;-30
2023/07/11 08:56:48;;;;;;;7.25;6.55;;;30.70;99.90;;;;;;5022862;28;20183;-30
2023/07/11 08:59:41;;;;;;;8.75;6.75;;;30.80;99.90;;;;;;5041983;28;20202;-30
2023/07/11 09:02:09;;;;;;;8.18;6.97;;;31.00;99.90;;;;;;5030581;28;20186;-30
2023/07/11 09:04:46;;;;;;;8.50;6.72;;;31.20;99.90;;;;;;5046433;28;20251;-31
2023/07/11 09:07:39;;;;;;;7.90;7.13;;;31.30;99.90;;;;;;5048201;28;20184;-31
2023/07/11 09:10:42;;;;;;;7.78;7.00;;;31.40;99.90;;;;;;5036093;28;20202;-31
2023/07/11 09:13:22;;;;;;;8.90;6.30;;;31.60;99.90;;;;;;5029708;28;20194;-31
2023/07/11 09:16:07;;;;;;;8.25;6.35;;;31.70;99.90;;;;;;5036884;28;20216;-31
2023/07/11 09:18:50;;;;;;;8.48;6.47;;;32.00;99.90;;;;;;5025814;28;20252;-30
2023/07/11 09:21:46;;;;;;;7.50;5.97;;;32.20;99.90;;;;;;5028244;28;20252;-31
2023/07/11 09:24:31;;;;;;;8.20;6.55;;;32.40;99.90;;;;;;5024097;28;20178;-32
2023/07/11 09:27:15;;;;;;;7.13;6.45;;;32.50;99.90;;;;;;5043411;28;20182;-31
2023/07/11 09:29:44;;;;;;;6.78;6.18;;;32.70;99.90;;;;;;5036720;28;20174;-31
2023/07/11 09:32:11;;;;;;;7.97;5.82;;;32.90;99.90;;;;;;5036643;28;20198;-32
2023/07/11 09:34:42;;;;;;;6.35;5.85;;;33.10;99.90;;;;;;5055605;28;20185;-31
2023/07/11 09:37:32;;;;;;;10.35;6.65;;;33.20;99.90;;;;;;5071092;28;20268;-31
2023/07/11 09:40:01;;;;;;;6.40;5.70;;;33.10;99.90;;;;;;5055605;28;20181;-31
2023/07/11 09:42:33;;;;;;;9.20;6.10;;;32.90;99.90;;;;;;5042689;28;20185;-31
2023/07/11 09:45:09;;;;;;;8.68;6.72;;;32.80;99.90;;;;;;5056475;28;20216;-30
2023/07/11 09:47:36;;;;;;;8.05;6.20;;;32.80;99.90;;;;;;5044676;28;20197;-31
2023/07/11 09:50:27;;;;;;;8.35;5.88;;;32.90;99.90;;;;;;5053957;28;20173;-31
2023/07/11 09:52:58;;;;;;;7.47;6.18;;;33.20;99.90;;;;;;5040930;28;20234;-31
2023/07/11 09:55:30;;;;;;;7.10;5.88;;;33.30;99.90;;;;;;5055313;28;20190;-31
2023/07/11 09:57:56;;;;;;;7.50;6.40;;;33.30;99.90;;;;;;5069794;28;20212;-31
2023/07/11 10:00:22;;;;;;;6.95;5.95;;;33.50;99.90;;;;;;5055001;28;20179;-31
2023/07/11 10:02:49;;;;;;;6.78;6.13;;;33.30;99.90;;;;;;5054061;28;20209;-31
2023/07/11 10:05:23;;;;;;;7.20;6.50;;;33.30;99.90;;;;;;5056988;28;20220;-31
2023/07/11 10:08:00;;;;;;;7.70;6.43;;;33.50;99.90;;;;;;5044515;28;20208;-31
2023/07/11 10:10:27;;;;;;;9.20;6.90;;;33.70;99.90;;;;;;5047478;28;20313;-30
2023/07/11 10:12:52;;;;;;;9.82;6.88;;;33.70;99.90;;;;;;5058733;28;20279;-31
2023/07/11 10:15:23;;;;;;;7.05;6.35;;;33.60;99.90;;;;;;5057795;28;20178;-31
2023/07/11 10:17:56;;;;;;;8.48;6.88;;;33.60;99.90;;;;;;5038894;28;20215;-31
2023/07/11 10:20:22;;;;;;;10.15;6.65;;;33.70;99.90;;;;;;5045253;28;20179;-31
2023/07/11 10:22:51;;;;;;;6.97;6.20;;;34.10;99.90;;;;;;5036622;28;20190;-30
2023/07/11 10:25:26;;;;;;;7.20;6.55;;;34.20;99.90;;;;;;5059452;28;20189;-30
2023/07/11 10:28:05;;;;;;;8.98;6.45;;;34.10;99.90;;;;;;5031391;28;20223;-31
2023/07/11 10:30:34;;;;;;;7.15;6.22;;;34.30;99.90;;;;;;5046590;28;20185;-31
2023/07/11 10:33:08;;;;;;;7.18;6.47;;;34.40;99.90;;;;;;5050086;28;20213;-31
2023/07/11 10:35:36;;;;;;;7.22;6.60;;;34.40;99.90;;;;;;5035224;28;20181;-30
2023/07/11 10:38:35;;;;;;;7.43;6.63;;;34.20;99.90;;;;;;5024179;28;20313;-31
2023/07/11 10:41:03;;;;;;;7.40;6.70;;;34.30;99.90;;;;;;5038768;28;20194;-31
2023/07/11 10:43:35;;;;;;;7.57;6.90;;;34.60;99.90;;;;;;5041440;28;20185;-32
2023/07/11 10:46:19;;;;;;;7.68;6.35;;;34.70;99.90;;;;;;5063260;28;20197;-31
2023/07/11 10:48:58;;;;;;;7.38;6.70;;;34.80;99.90;;;;;;5040450;28;20219;-32
2023/07/11 10:51:33;;;;;;;8.32;6.30;;;35.10;99.90;;;;;;5056700;28;20217;-32
2023/07/11 10:54:24;;;;;;;8.00;6.88;;;35.20;99.90;;;;;;5060261;28;20174;-31
2023/07/11 10:56:57;;;;;;;6.72;6.13;;;35.20;99.90;;;;;;5028586;28;20226;-32
2023/07/11 10:59:32;;;;;;;11.07;6.78;;;35.20;99.90;;;;;;5051880;28;20202;-31
2023/07/11 11:02:19;;;;;;;6.80;6.07;;;35.20;99.90;;;;;;5041863;28;20355;-31
2023/07/11 11:05:15;;;;;;;9.02;6.25;;;35.20;99.90;;;;;;5036152;28;20244;-31
2023/07/11 11:07:45;;;;;;;8.85;6.40;;;34.90;99.90;;;;;;5044164;28;20296;-32
2023/07/11 11:10:38;;;;;;;7.40;6.70;;;34.70;99.90;;;;;;5036360;28;20194;-31
2023/07/11 11:13:37;;;;;;;8.35;6.93;;;34.80;99.90;;;;;;5038437;28;20214;-32
2023/07/11 11:16:17;;;;;;;7.43;6.63;;;35.00;99.90;;;;;;5041726;28;20807;-31
2023/07/11 11:19:06;;;;;;;6.97;6.30;;;35.10;99.90;;;;;;5042019;28;20197;-32
2023/07/11 11:21:58;;;;;;;8.88;6.28;;;35.30;99.90;;;;;;5042352;28;20236;-31
2023/07/11 11:24:43;;;;;;;8.65;5.95;;;35.30;99.90;;;;;;5035798;28;20187;-32
2023/07/11 11:27:48;;;;;;;9.48;7.00;;;35.40;99.90;;;;;;5026965;28;20183;-31
2023/07/11 11:30:33;;;;;;;9.00;7.00;;;35.40;99.50;;;;;;5033161;28;20225;-32
2023/07/11 11:33:16;;;;;;;7.82;6.40;;;35.50;99.60;;;;;;5044848;28;20202;-32
2023/07/11 11:35:54;;;;;;;7.60;6.47;;;35.80;99.20;;;;;;5045224;28;20234;-32
2023/07/11 11:38:47;;;;;;;7.70;6.10;;;35.80;98.70;;;;;;5042087;28;20268;-31
2023/07/11 11:41:16;;;;;;;7.50;6.18;;;35.90;99.60;;;;;;5067345;28;20181;-32
2023/07/11 11:43:47;;;;;;;8.40;6.00;;;35.90;99.40;;;;;;5045753;28;20227;-32
2023/07/11 11:46:14;;;;;;;9.27;6.72;;;36.30;99.90;;;;;;5059132;28;20182;-31
2023/07/11 11:48:41;;;;;;;9.23;6.68;;;36.50;98.60;;;;;;5038378;28;20213;-30
2023/07/11 11:51:10;;;;;;;7.82;6.50;;;36.60;97.90;;;;;;5048321;28;20289;-33
2023/07/11 11:53:44;;;;;;;8.55;6.35;;;36.30;97.80;;;;;;5051026;28;20190;-32
2023/07/11 11:56:19;;;;;;;7.55;6.43;;;36.30;97.80;;;;;;5048945;28;20187;-30
2023/07/11 11:59:01;;;;;;;7.03;6.32;;;36.30;97.90;;;;;;5055677;28;20197;-31
2023/07/11 12:02:03;;;;;;;7.65;6.78;;;36.30;98.30;;;;;;5062811;28;20186;-32
2023/07/11 12:04:34;;;;;;;6.60;5.95;;;36.50;97.30;;;;;;5054863;28;20189;-31
2023/07/11 12:07:14;;;;;;;9.90;6.45;;;36.50;96.40;;;;;;5054418;28;20179;-32
2023/07/11 12:10:10;;;;;;;8.77;6.43;;;36.20;96.80;;;;;;5077001;28;20194;-30
2023/07/11 12:12:36;;;;;;;7.50;6.25;;;36.10;96.70;;;;;;5031321;28;20214;-32
2023/07/11 12:15:21;;;;;;;8.38;6.35;;;36.30;97.20;;;;;;5037868;28;20194;-31
2023/07/11 12:17:49;;;;;;;9.45;6.30;;;36.70;97.40;;;;;;5031756;28;20194;-31
2023/07/11 12:20:28;;;;;;;7.65;6.15;;;37.00;96.10;;;;;;5046245;28;20232;-32
2023/07/11 12:22:56;;;;;;;7.55;6.47;;;37.00;96.00;;;;;;5039969;28;20266;-31
2023/07/11 12:25:28;;;;;;;7.28;6.57;;;37.00;96.40;;;;;;5031874;28;20178;-32
2023/07/11 12:27:55;;;;;;;8.00;6.35;;;37.20;95.90;;;;;;5051407;28;20251;-32
2023/07/11 12:30:42;;;;;;;8.43;6.30;;;37.30;95.20;;;;;;5065993;28;20209;-32
2023/07/11 12:34:02;;;;;;;7.80;6.28;;;37.30;94.60;;;;;;5064614;28;20210;-32
2023/07/11 12:36:59;;;;;;;8.68;7.07;;;37.30;94.20;;;;;;5078029;28;20185;-32
2023/07/11 12:39:45;;;;;;;7.97;6.45;;;37.20;93.30;;;;;;5059680;28;20328;-31
2023/07/11 12:42:53;;;;;;;8.82;6.82;;;37.40;93.70;;;;;;5029897;28;20189;-31
2023/07/11 12:45:39;;;;;;;8.77;7.45;;;36.90;93.60;;;;;;5061218;28;20287;-32
2023/07/11 12:48:15;;;;;;;9.05;6.93;;;36.40;93.50;;;;;;5066194;28;20206;-30
2023/07/11 12:50:57;;;;;;;8.38;6.78;;;36.40;93.90;;;;;;5040027;28;20707;-31
2023/07/11 12:53:25;;;;;;;7.40;6.70;;;36.50;93.90;;;;;;5045791;28;20181;-32
2023/07/11 12:55:54;;;;;;;8.40;6.75;;;36.60;94.00;;;;;;5038340;28;20202;-32
2023/07/11 12:58:26;;;;;;;10.05;7.43;;;36.60;93.40;;;;;;5031739;28;20281;-32
2023/07/11 13:00:54;;;;;;;10.07;6.70;;;36.60;93.20;;;;;;5057282;28;20174;-32
2023/07/11 13:03:38;;;;;;;10.55;7.60;;;36.70;93.30;;;;;;5031391;28;20186;-31